sensor_id;sensor_type;location;lat;lon;timestamp;pressure;altitude;pressure_sealevel;temperature;humidity
48156;BME280;35568;48.104;11.782;2023-03-03T00:00:39;95424.33;;;1.25;52.63
48156;BME280;35568;48.104;11.782;2023-03-03T00:03:07;95423.56;;;1.12;52.79
48156;BME280;35568;48.104;11.782;2023-03-03T00:05:37;95425.81;;;1.29;52.53
48156;BME280;35568;48.104;11.782;2023-03-03T00:08:04;95424.83;;;1.33;52.56
48156;BME280;35568;48.104;11.782;2023-03-03T00:10:31;95423.45;;;1.36;52.24
48156;BME280;35568;48.104;11.782;2023-03-03T00:12:58;95423.09;;;1.37;52.22
48156;BME280;35568;48.104;11.782;2023-03-03T00:15:26;95420.52;;;1.35;52.49
48156;BME280;35568;48.104;11.782;2023-03-03T00:17:54;95417.16;;;0.98;52.90
48156;BME280;35568;48.104;11.782;2023-03-03T00:20:29;95418.09;;;1.32;52.29
48156;BME280;35568;48.104;11.782;2023-03-03T00:23:02;95420.44;;;1.30;52.19
48156;BME280;35568;48.104;11.782;2023-03-03T00:25:33;95417.12;;;0.88;52.57
48156;BME280;35568;48.104;11.782;2023-03-03T00:28:05;95416.01;;;0.59;53.21
48156;BME280;35568;48.104;11.782;2023-03-03T00:30:34;95418.10;;;0.67;53.08
48156;BME280;35568;48.104;11.782;2023-03-03T00:33:01;95411.71;;;0.60;53.10
48156;BME280;35568;48.104;11.782;2023-03-03T00:35:33;95413.16;;;0.77;53.39
48156;BME280;35568;48.104;11.782;2023-03-03T00:38:09;95412.87;;;0.78;53.28
48156;BME280;35568;48.104;11.782;2023-03-03T00:40:38;95410.20;;;0.56;53.58
48156;BME280;35568;48.104;11.782;2023-03-03T00:43:17;95412.08;;;0.51;53.77
48156;BME280;35568;48.104;11.782;2023-03-03T00:45:47;95415.90;;;0.44;54.07
48156;BME280;35568;48.104;11.782;2023-03-03T00:48:21;95418.11;;;0.35;54.32
48156;BME280;35568;48.104;11.782;2023-03-03T00:50:50;95418.12;;;0.75;54.11
48156;BME280;35568;48.104;11.782;2023-03-03T00:53:19;95425.33;;;0.57;54.49
48156;BME280;35568;48.104;11.782;2023-03-03T00:55:48;95427.94;;;0.55;53.99
48156;BME280;35568;48.104;11.782;2023-03-03T00:58:16;95427.73;;;0.33;54.56
48156;BME280;35568;48.104;11.782;2023-03-03T01:00:43;95427.38;;;0.58;54.39
48156;BME280;35568;48.104;11.782;2023-03-03T01:03:13;95427.88;;;0.14;55.00
48156;BME280;35568;48.104;11.782;2023-03-03T01:05:41;95428.78;;;0.40;54.94
48156;BME280;35568;48.104;11.782;2023-03-03T01:08:08;95426.01;;;0.31;55.02
48156;BME280;35568;48.104;11.782;2023-03-03T01:10:38;95429.08;;;-0.19;55.29
48156;BME280;35568;48.104;11.782;2023-03-03T01:13:07;95428.83;;;0.63;54.50
48156;BME280;35568;48.104;11.782;2023-03-03T01:15:35;95427.97;;;0.70;54.30
48156;BME280;35568;48.104;11.782;2023-03-03T01:18:03;95427.78;;;0.50;54.32
48156;BME280;35568;48.104;11.782;2023-03-03T01:20:30;95425.90;;;0.41;54.52
48156;BME280;35568;48.104;11.782;2023-03-03T01:22:56;95425.31;;;0.67;54.48
48156;BME280;35568;48.104;11.782;2023-03-03T01:25:23;95425.60;;;0.59;54.67
48156;BME280;35568;48.104;11.782;2023-03-03T01:27:50;95418.51;;;0.44;55.01
48156;BME280;35568;48.104;11.782;2023-03-03T01:30:18;95417.98;;;0.16;54.91
48156;BME280;35568;48.104;11.782;2023-03-03T01:32:45;95418.92;;;0.54;54.98
48156;BME280;35568;48.104;11.782;2023-03-03T01:35:12;95418.38;;;0.41;55.08
48156;BME280;35568;48.104;11.782;2023-03-03T01:37:39;95417.52;;;0.19;54.97
48156;BME280;35568;48.104;11.782;2023-03-03T01:40:13;95416.53;;;0.70;54.92
48156;BME280;35568;48.104;11.782;2023-03-03T01:42:40;95412.93;;;0.76;54.49
48156;BME280;35568;48.104;11.782;2023-03-03T01:45:13;95408.57;;;0.52;54.38
48156;BME280;35568;48.104;11.782;2023-03-03T01:47:43;95406.36;;;0.49;54.21
48156;BME280;35568;48.104;11.782;2023-03-03T01:50:14;95406.67;;;0.04;54.61
48156;BME280;35568;48.104;11.782;2023-03-03T01:52:46;95403.61;;;0.83;54.24
48156;BME280;35568;48.104;11.782;2023-03-03T01:55:17;95404.98;;;0.85;53.73
48156;BME280;35568;48.104;11.782;2023-03-03T01:57:51;95400.64;;;0.03;54.17
48156;BME280;35568;48.104;11.782;2023-03-03T02:00:20;95398.55;;;0.48;54.37
48156;BME280;35568;48.104;11.782;2023-03-03T02:02:47;95400.54;;;0.74;53.79
48156;BME280;35568;48.104;11.782;2023-03-03T02:05:15;95399.87;;;0.18;53.88
48156;BME280;35568;48.104;11.782;2023-03-03T02:07:43;95396.67;;;0.56;53.68
48156;BME280;35568;48.104;11.782;2023-03-03T02:10:12;95398.28;;;0.73;53.74
48156;BME280;35568;48.104;11.782;2023-03-03T02:12:41;95397.55;;;0.34;53.84
48156;BME280;35568;48.104;11.782;2023-03-03T02:15:19;95397.40;;;0.37;53.83
48156;BME280;35568;48.104;11.782;2023-03-03T02:17:47;95397.05;;;0.27;53.67
48156;BME280;35568;48.104;11.782;2023-03-03T02:20:25;95400.15;;;0.72;53.69
48156;BME280;35568;48.104;11.782;2023-03-03T02:22:59;95402.86;;;0.48;53.60
48156;BME280;35568;48.104;11.782;2023-03-03T02:25:32;95401.15;;;0.35;53.71
48156;BME280;35568;48.104;11.782;2023-03-03T02:28:01;95402.35;;;0.71;53.22
48156;BME280;35568;48.104;11.782;2023-03-03T02:30:28;95404.56;;;0.64;53.21
48156;BME280;35568;48.104;11.782;2023-03-03T02:32:56;95404.78;;;0.73;53.27
48156;BME280;35568;48.104;11.782;2023-03-03T02:35:29;95403.59;;;0.99;52.86
48156;BME280;35568;48.104;11.782;2023-03-03T02:38:11;95404.49;;;1.15;52.40
48156;BME280;35568;48.104;11.782;2023-03-03T02:40:45;95403.11;;;0.85;52.48
48156;BME280;35568;48.104;11.782;2023-03-03T02:43:16;95407.71;;;0.78;52.10
48156;BME280;35568;48.104;11.782;2023-03-03T02:45:45;95408.50;;;0.77;51.93
48156;BME280;35568;48.104;11.782;2023-03-03T02:48:12;95409.65;;;1.06;51.78
48156;BME280;35568;48.104;11.782;2023-03-03T02:50:40;95406.20;;;1.46;51.34
48156;BME280;35568;48.104;11.782;2023-03-03T02:53:07;95404.86;;;0.81;51.42
48156;BME280;35568;48.104;11.782;2023-03-03T02:55:33;95401.22;;;0.86;51.25
48156;BME280;35568;48.104;11.782;2023-03-03T02:58:00;95397.82;;;0.63;51.80
48156;BME280;35568;48.104;11.782;2023-03-03T03:00:28;95396.45;;;0.42;52.32
48156;BME280;35568;48.104;11.782;2023-03-03T03:02:55;95399.21;;;0.96;52.42
48156;BME280;35568;48.104;11.782;2023-03-03T03:05:22;95401.38;;;1.24;51.74
48156;BME280;35568;48.104;11.782;2023-03-03T03:07:49;95395.90;;;0.91;51.89
48156;BME280;35568;48.104;11.782;2023-03-03T03:10:16;95397.07;;;0.92;51.40
48156;BME280;35568;48.104;11.782;2023-03-03T03:12:42;95396.61;;;1.05;51.24
48156;BME280;35568;48.104;11.782;2023-03-03T03:15:10;95396.68;;;1.14;50.85
48156;BME280;35568;48.104;11.782;2023-03-03T03:17:37;95396.94;;;1.17;50.25
48156;BME280;35568;48.104;11.782;2023-03-03T03:20:05;95399.78;;;1.31;50.32
48156;BME280;35568;48.104;11.782;2023-03-03T03:22:33;95396.34;;;1.03;50.46
48156;BME280;35568;48.104;11.782;2023-03-03T03:25:00;95395.54;;;0.81;50.76
48156;BME280;35568;48.104;11.782;2023-03-03T03:27:26;95395.10;;;0.48;51.49
48156;BME280;35568;48.104;11.782;2023-03-03T03:29:54;95394.28;;;0.88;51.68
48156;BME280;35568;48.104;11.782;2023-03-03T03:32:20;95398.76;;;1.07;51.39
48156;BME280;35568;48.104;11.782;2023-03-03T03:34:47;95403.64;;;0.99;51.19
48156;BME280;35568;48.104;11.782;2023-03-03T03:37:14;95408.88;;;1.35;50.64
48156;BME280;35568;48.104;11.782;2023-03-03T03:39:42;95407.61;;;1.20;50.42
48156;BME280;35568;48.104;11.782;2023-03-03T03:42:08;95407.64;;;1.28;50.41
48156;BME280;35568;48.104;11.782;2023-03-03T03:44:35;95409.03;;;1.36;50.45
48156;BME280;35568;48.104;11.782;2023-03-03T03:47:02;95409.81;;;1.43;50.50
48156;BME280;35568;48.104;11.782;2023-03-03T03:49:29;95410.68;;;1.50;50.59
48156;BME280;35568;48.104;11.782;2023-03-03T03:51:56;95408.45;;;1.59;50.76
48156;BME280;35568;48.104;11.782;2023-03-03T03:54:23;95409.51;;;1.46;50.77
48156;BME280;35568;48.104;11.782;2023-03-03T03:56:50;95406.19;;;1.41;50.84
48156;BME280;35568;48.104;11.782;2023-03-03T03:59:17;95405.62;;;0.89;51.36
48156;BME280;35568;48.104;11.782;2023-03-03T04:03:01;95406.05;;;1.48;51.10
48156;BME280;35568;48.104;11.782;2023-03-03T04:05:28;95405.35;;;1.36;51.52
48156;BME280;35568;48.104;11.782;2023-03-03T04:07:55;95405.85;;;1.13;51.86
48156;BME280;35568;48.104;11.782;2023-03-03T04:10:22;95407.70;;;1.37;51.72
48156;BME280;35568;48.104;11.782;2023-03-03T04:12:49;95411.70;;;1.26;51.48
48156;BME280;35568;48.104;11.782;2023-03-03T04:15:16;95407.69;;;1.53;51.67
48156;BME280;35568;48.104;11.782;2023-03-03T04:17:43;95410.76;;;1.68;51.35
48156;BME280;35568;48.104;11.782;2023-03-03T04:20:12;95410.65;;;1.84;51.04
48156;BME280;35568;48.104;11.782;2023-03-03T04:22:39;95411.82;;;2.01;50.71
48156;BME280;35568;48.104;11.782;2023-03-03T04:25:07;95413.55;;;2.00;50.94
48156;BME280;35568;48.104;11.782;2023-03-03T04:27:36;95411.35;;;1.72;51.41
48156;BME280;35568;48.104;11.782;2023-03-03T04:30:04;95413.36;;;1.79;51.49
48156;BME280;35568;48.104;11.782;2023-03-03T04:32:32;95416.34;;;1.56;51.19
48156;BME280;35568;48.104;11.782;2023-03-03T04:34:59;95420.86;;;1.68;51.75
48156;BME280;35568;48.104;11.782;2023-03-03T04:37:26;95421.32;;;1.92;51.31
48156;BME280;35568;48.104;11.782;2023-03-03T04:39:53;95422.81;;;2.22;50.99
48156;BME280;35568;48.104;11.782;2023-03-03T04:42:19;95421.48;;;1.73;51.30
48156;BME280;35568;48.104;11.782;2023-03-03T04:44:46;95415.64;;;1.58;52.02
48156;BME280;35568;48.104;11.782;2023-03-03T04:47:13;95415.79;;;1.48;52.22
48156;BME280;35568;48.104;11.782;2023-03-03T04:49:40;95411.50;;;1.22;52.49
48156;BME280;35568;48.104;11.782;2023-03-03T04:52:07;95407.73;;;1.34;52.70
48156;BME280;35568;48.104;11.782;2023-03-03T04:54:34;95411.09;;;1.49;52.26
48156;BME280;35568;48.104;11.782;2023-03-03T04:57:01;95409.79;;;1.75;51.99
48156;BME280;35568;48.104;11.782;2023-03-03T04:59:27;95411.06;;;1.60;52.36
48156;BME280;35568;48.104;11.782;2023-03-03T05:01:55;95413.59;;;1.64;52.37
48156;BME280;35568;48.104;11.782;2023-03-03T05:04:22;95413.21;;;2.00;51.81
48156;BME280;35568;48.104;11.782;2023-03-03T05:06:48;95414.37;;;1.79;51.81
48156;BME280;35568;48.104;11.782;2023-03-03T05:09:16;95411.45;;;1.91;51.49
48156;BME280;35568;48.104;11.782;2023-03-03T05:11:43;95412.84;;;2.08;52.12
48156;BME280;35568;48.104;11.782;2023-03-03T05:14:09;95413.13;;;1.63;52.22
48156;BME280;35568;48.104;11.782;2023-03-03T05:16:36;95413.84;;;1.88;52.22
48156;BME280;35568;48.104;11.782;2023-03-03T05:19:03;95414.89;;;1.91;52.48
48156;BME280;35568;48.104;11.782;2023-03-03T05:21:30;95416.98;;;1.70;52.27
48156;BME280;35568;48.104;11.782;2023-03-03T05:23:57;95418.37;;;1.66;52.34
48156;BME280;35568;48.104;11.782;2023-03-03T05:26:24;95415.59;;;1.51;52.83
48156;BME280;35568;48.104;11.782;2023-03-03T05:28:51;95413.98;;;1.62;52.77
48156;BME280;35568;48.104;11.782;2023-03-03T05:31:19;95413.07;;;1.41;52.97
48156;BME280;35568;48.104;11.782;2023-03-03T05:33:46;95416.08;;;1.88;52.50
48156;BME280;35568;48.104;11.782;2023-03-03T05:36:13;95416.79;;;1.69;52.16
48156;BME280;35568;48.104;11.782;2023-03-03T05:38:39;95420.72;;;1.77;52.34
48156;BME280;35568;48.104;11.782;2023-03-03T05:41:06;95420.32;;;1.85;52.28
48156;BME280;35568;48.104;11.782;2023-03-03T05:43:34;95423.16;;;1.74;52.36
48156;BME280;35568;48.104;11.782;2023-03-03T05:46:01;95429.71;;;2.20;52.21
48156;BME280;35568;48.104;11.782;2023-03-03T05:48:28;95434.69;;;2.09;52.43
48156;BME280;35568;48.104;11.782;2023-03-03T05:50:57;95436.93;;;1.76;52.74
48156;BME280;35568;48.104;11.782;2023-03-03T05:53:24;95437.56;;;2.00;52.34
48156;BME280;35568;48.104;11.782;2023-03-03T05:55:51;95440.17;;;1.90;52.44
48156;BME280;35568;48.104;11.782;2023-03-03T05:58:18;95443.60;;;2.47;52.24
48156;BME280;35568;48.104;11.782;2023-03-03T06:00:45;95447.62;;;2.26;51.67
48156;BME280;35568;48.104;11.782;2023-03-03T06:03:13;95444.82;;;2.14;51.77
48156;BME280;35568;48.104;11.782;2023-03-03T06:05:40;95445.39;;;2.05;52.32
48156;BME280;35568;48.104;11.782;2023-03-03T06:08:08;95440.24;;;1.98;52.15
48156;BME280;35568;48.104;11.782;2023-03-03T06:10:35;95439.90;;;2.09;52.43
48156;BME280;35568;48.104;11.782;2023-03-03T06:13:02;95441.31;;;2.11;52.21
48156;BME280;35568;48.104;11.782;2023-03-03T06:15:29;95445.03;;;1.97;52.29
48156;BME280;35568;48.104;11.782;2023-03-03T06:17:58;95449.88;;;2.44;51.96
48156;BME280;35568;48.104;11.782;2023-03-03T06:20:27;95450.21;;;2.43;51.61
48156;BME280;35568;48.104;11.782;2023-03-03T06:22:54;95457.28;;;2.56;51.50
48156;BME280;35568;48.104;11.782;2023-03-03T06:25:21;95461.37;;;2.74;51.27
48156;BME280;35568;48.104;11.782;2023-03-03T06:27:48;95466.61;;;2.91;51.04
48156;BME280;35568;48.104;11.782;2023-03-03T06:30:15;95469.59;;;3.03;50.91
48156;BME280;35568;48.104;11.782;2023-03-03T06:32:42;95471.69;;;3.18;50.62
48156;BME280;35568;48.104;11.782;2023-03-03T06:35:10;95472.65;;;3.24;50.64
48156;BME280;35568;48.104;11.782;2023-03-03T06:37:37;95471.62;;;2.83;50.44
48156;BME280;35568;48.104;11.782;2023-03-03T06:40:06;95471.10;;;3.36;50.31
48156;BME280;35568;48.104;11.782;2023-03-03T06:42:33;95470.31;;;2.50;50.92
48156;BME280;35568;48.104;11.782;2023-03-03T06:45:00;95464.85;;;2.64;51.90
48156;BME280;35568;48.104;11.782;2023-03-03T06:47:27;95464.58;;;2.30;52.30
48156;BME280;35568;48.104;11.782;2023-03-03T06:49:54;95469.81;;;2.56;51.93
48156;BME280;35568;48.104;11.782;2023-03-03T06:52:24;95474.48;;;2.74;51.79
48156;BME280;35568;48.104;11.782;2023-03-03T06:54:54;95472.87;;;2.68;51.85
48156;BME280;35568;48.104;11.782;2023-03-03T06:57:25;95477.91;;;2.48;52.24
48156;BME280;35568;48.104;11.782;2023-03-03T06:59:55;95479.05;;;2.88;51.67
48156;BME280;35568;48.104;11.782;2023-03-03T07:02:23;95481.59;;;3.21;51.08
48156;BME280;35568;48.104;11.782;2023-03-03T07:04:52;95485.11;;;3.17;51.31
48156;BME280;35568;48.104;11.782;2023-03-03T07:07:20;95487.66;;;3.09;51.42
48156;BME280;35568;48.104;11.782;2023-03-03T07:09:50;95487.45;;;3.34;51.01
48156;BME280;35568;48.104;11.782;2023-03-03T07:12:19;95489.81;;;3.49;50.65
48156;BME280;35568;48.104;11.782;2023-03-03T07:14:49;95488.36;;;2.97;50.69
48156;BME280;35568;48.104;11.782;2023-03-03T07:17:19;95486.54;;;2.41;51.54
48156;BME280;35568;48.104;11.782;2023-03-03T07:19:51;95491.67;;;3.37;52.27
48156;BME280;35568;48.104;11.782;2023-03-03T07:22:20;95493.01;;;3.12;52.47
48156;BME280;35568;48.104;11.782;2023-03-03T07:24:49;95493.83;;;3.10;52.58
48156;BME280;35568;48.104;11.782;2023-03-03T07:27:22;95499.84;;;3.63;51.60
48156;BME280;35568;48.104;11.782;2023-03-03T07:29:51;95506.25;;;3.88;51.09
48156;BME280;35568;48.104;11.782;2023-03-03T07:32:24;95505.22;;;3.80;50.93
48156;BME280;35568;48.104;11.782;2023-03-03T07:34:53;95510.03;;;3.61;51.39
48156;BME280;35568;48.104;11.782;2023-03-03T07:37:28;95515.39;;;3.54;51.04
48156;BME280;35568;48.104;11.782;2023-03-03T07:39:56;95519.61;;;4.11;50.51
48156;BME280;35568;48.104;11.782;2023-03-03T07:42:25;95523.28;;;4.63;49.97
48156;BME280;35568;48.104;11.782;2023-03-03T07:44:54;95525.17;;;4.44;49.35
48156;BME280;35568;48.104;11.782;2023-03-03T07:47:23;95526.03;;;4.63;48.99
48156;BME280;35568;48.104;11.782;2023-03-03T07:49:53;95527.17;;;4.87;47.86
48156;BME280;35568;48.104;11.782;2023-03-03T07:52:27;95526.40;;;4.92;48.22
48156;BME280;35568;48.104;11.782;2023-03-03T07:54:57;95529.88;;;4.62;49.59
48156;BME280;35568;48.104;11.782;2023-03-03T07:57:26;95527.82;;;4.91;48.65
48156;BME280;35568;48.104;11.782;2023-03-03T07:59:59;95531.33;;;5.50;47.81
48156;BME280;35568;48.104;11.782;2023-03-03T08:02:36;95532.67;;;5.36;47.45
48156;BME280;35568;48.104;11.782;2023-03-03T08:05:26;95533.19;;;5.60;47.49
48156;BME280;35568;48.104;11.782;2023-03-03T08:07:59;95528.44;;;4.62;47.87
48156;BME280;35568;48.104;11.782;2023-03-03T08:10:35;95528.86;;;4.53;48.29
48156;BME280;35568;48.104;11.782;2023-03-03T08:13:16;95532.09;;;4.60;48.57
48156;BME280;35568;48.104;11.782;2023-03-03T08:15:44;95534.32;;;4.29;48.91
48156;BME280;35568;48.104;11.782;2023-03-03T08:18:18;95535.07;;;4.09;48.94
48156;BME280;35568;48.104;11.782;2023-03-03T08:20:48;95532.52;;;3.90;49.34
48156;BME280;35568;48.104;11.782;2023-03-03T08:23:17;95531.08;;;4.29;49.71
48156;BME280;35568;48.104;11.782;2023-03-03T08:25:46;95530.86;;;4.57;50.04
48156;BME280;35568;48.104;11.782;2023-03-03T08:28:14;95528.22;;;4.78;48.90
48156;BME280;35568;48.104;11.782;2023-03-03T08:30:42;95529.36;;;4.91;48.87
48156;BME280;35568;48.104;11.782;2023-03-03T08:33:10;95528.92;;;5.15;47.91
48156;BME280;35568;48.104;11.782;2023-03-03T08:35:38;95529.60;;;4.79;48.07
48156;BME280;35568;48.104;11.782;2023-03-03T08:38:05;95531.99;;;4.17;48.42
48156;BME280;35568;48.104;11.782;2023-03-03T08:40:34;95534.69;;;4.60;48.49
48156;BME280;35568;48.104;11.782;2023-03-03T08:43:02;95539.85;;;4.52;49.03
48156;BME280;35568;48.104;11.782;2023-03-03T08:45:30;95537.66;;;4.45;48.98
48156;BME280;35568;48.104;11.782;2023-03-03T08:47:57;95540.18;;;4.29;48.99
48156;BME280;35568;48.104;11.782;2023-03-03T08:50:25;95542.98;;;4.08;49.01
48156;BME280;35568;48.104;11.782;2023-03-03T08:52:52;95544.86;;;4.04;48.87
48156;BME280;35568;48.104;11.782;2023-03-03T08:55:19;95547.85;;;4.91;48.87
48156;BME280;35568;48.104;11.782;2023-03-03T08:57:46;95547.48;;;4.55;48.58
48156;BME280;35568;48.104;11.782;2023-03-03T09:00:15;95552.16;;;4.81;48.70
48156;BME280;35568;48.104;11.782;2023-03-03T09:02:42;95552.49;;;4.84;48.19
48156;BME280;35568;48.104;11.782;2023-03-03T09:05:10;95558.40;;;5.16;47.66
48156;BME280;35568;48.104;11.782;2023-03-03T09:07:40;95557.31;;;5.18;47.73
48156;BME280;35568;48.104;11.782;2023-03-03T09:10:09;95553.12;;;5.32;47.80
48156;BME280;35568;48.104;11.782;2023-03-03T09:12:39;95551.42;;;5.28;47.60
48156;BME280;35568;48.104;11.782;2023-03-03T09:15:15;95550.29;;;5.40;47.57
48156;BME280;35568;48.104;11.782;2023-03-03T09:17:44;95550.93;;;5.35;47.76
48156;BME280;35568;48.104;11.782;2023-03-03T09:20:23;95554.25;;;5.42;46.88
48156;BME280;35568;48.104;11.782;2023-03-03T09:22:51;95556.30;;;5.70;46.54
48156;BME280;35568;48.104;11.782;2023-03-03T09:25:22;95556.69;;;5.83;46.76
48156;BME280;35568;48.104;11.782;2023-03-03T09:27:53;95560.28;;;5.56;46.51
48156;BME280;35568;48.104;11.782;2023-03-03T09:30:34;95560.37;;;5.48;46.99
48156;BME280;35568;48.104;11.782;2023-03-03T09:33:18;95560.50;;;5.27;47.46
48156;BME280;35568;48.104;11.782;2023-03-03T09:35:49;95559.21;;;5.58;47.71
48156;BME280;35568;48.104;11.782;2023-03-03T09:38:26;95568.24;;;5.42;47.41
48156;BME280;35568;48.104;11.782;2023-03-03T09:41:28;95572.00;;;5.56;47.35
48156;BME280;35568;48.104;11.782;2023-03-03T09:44:13;95573.84;;;5.72;46.60
48156;BME280;35568;48.104;11.782;2023-03-03T09:46:54;95576.54;;;6.33;45.32
48156;BME280;35568;48.104;11.782;2023-03-03T09:49:29;95574.80;;;6.79;45.01
48156;BME280;35568;48.104;11.782;2023-03-03T09:52:10;95581.05;;;6.57;44.97
48156;BME280;35568;48.104;11.782;2023-03-03T09:54:53;95584.95;;;6.33;45.74
48156;BME280;35568;48.104;11.782;2023-03-03T09:57:31;95587.41;;;6.63;45.20
48156;BME280;35568;48.104;11.782;2023-03-03T10:00:15;95590.13;;;6.29;45.29
48156;BME280;35568;48.104;11.782;2023-03-03T10:03:01;95593.47;;;5.94;46.02
48156;BME280;35568;48.104;11.782;2023-03-03T10:05:39;95595.31;;;6.43;45.03
48156;BME280;35568;48.104;11.782;2023-03-03T10:08:20;95592.21;;;6.93;44.96
48156;BME280;35568;48.104;11.782;2023-03-03T10:11:01;95594.49;;;7.21;43.62
48156;BME280;35568;48.104;11.782;2023-03-03T10:13:36;95592.32;;;6.87;44.15
48156;BME280;35568;48.104;11.782;2023-03-03T10:16:26;95596.01;;;6.91;44.50
48156;BME280;35568;48.104;11.782;2023-03-03T10:19:00;95599.30;;;7.01;43.67
48156;BME280;35568;48.104;11.782;2023-03-03T10:21:35;95597.96;;;7.48;43.68
48156;BME280;35568;48.104;11.782;2023-03-03T10:24:18;95601.64;;;7.45;43.76
48156;BME280;35568;48.104;11.782;2023-03-03T10:27:06;95600.58;;;7.23;43.79
48156;BME280;35568;48.104;11.782;2023-03-03T10:29:47;95604.63;;;7.81;43.06
48156;BME280;35568;48.104;11.782;2023-03-03T10:32:33;95608.71;;;8.13;42.94
48156;BME280;35568;48.104;11.782;2023-03-03T10:35:21;95609.99;;;8.42;42.32
48156;BME280;35568;48.104;11.782;2023-03-03T10:38:02;95611.54;;;7.66;42.78
48156;BME280;35568;48.104;11.782;2023-03-03T10:40:39;95608.58;;;7.55;42.91
48156;BME280;35568;48.104;11.782;2023-03-03T10:45:44;95597.33;;;8.08;43.15
48156;BME280;35568;48.104;11.782;2023-03-03T10:48:42;95599.78;;;7.89;42.90
48156;BME280;35568;48.104;11.782;2023-03-03T10:51:22;95599.03;;;8.10;41.93
48156;BME280;35568;48.104;11.782;2023-03-03T10:54:02;95597.61;;;8.49;42.07
48156;BME280;35568;48.104;11.782;2023-03-03T10:56:41;95595.63;;;8.59;41.33
48156;BME280;35568;48.104;11.782;2023-03-03T10:59:22;95595.44;;;8.57;41.30
48156;BME280;35568;48.104;11.782;2023-03-03T11:01:57;95596.14;;;8.63;40.56
48156;BME280;35568;48.104;11.782;2023-03-03T11:04:42;95597.17;;;8.97;40.80
48156;BME280;35568;48.104;11.782;2023-03-03T11:07:17;95603.13;;;8.68;40.79
48156;BME280;35568;48.104;11.782;2023-03-03T11:09:57;95601.94;;;9.20;40.90
48156;BME280;35568;48.104;11.782;2023-03-03T11:12:33;95604.92;;;9.72;40.05
48156;BME280;35568;48.104;11.782;2023-03-03T11:15:19;95607.85;;;9.98;39.98
48156;BME280;35568;48.104;11.782;2023-03-03T11:18:01;95610.19;;;9.88;39.60
48156;BME280;35568;48.104;11.782;2023-03-03T11:20:38;95612.02;;;9.96;39.49
48156;BME280;35568;48.104;11.782;2023-03-03T11:23:23;95612.85;;;9.68;39.30
48156;BME280;35568;48.104;11.782;2023-03-03T11:26:08;95605.28;;;10.08;39.03
48156;BME280;35568;48.104;11.782;2023-03-03T11:28:51;95606.18;;;9.43;39.34
48156;BME280;35568;48.104;11.782;2023-03-03T11:31:32;95605.32;;;10.09;38.63
48156;BME280;35568;48.104;11.782;2023-03-03T11:34:13;95606.41;;;10.42;38.20
48156;BME280;35568;48.104;11.782;2023-03-03T11:36:48;95603.72;;;10.19;38.49
48156;BME280;35568;48.104;11.782;2023-03-03T11:39:21;95601.97;;;10.43;38.29
48156;BME280;35568;48.104;11.782;2023-03-03T11:42:03;95598.51;;;10.26;38.63
48156;BME280;35568;48.104;11.782;2023-03-03T11:44:39;95592.31;;;10.26;38.40
48156;BME280;35568;48.104;11.782;2023-03-03T11:47:16;95587.28;;;10.42;37.58
48156;BME280;35568;48.104;11.782;2023-03-03T11:49:49;95583.66;;;10.74;38.37
48156;BME280;35568;48.104;11.782;2023-03-03T11:52:26;95577.72;;;11.01;36.70
48156;BME280;35568;48.104;11.782;2023-03-03T11:55:00;95571.97;;;11.13;36.45
48156;BME280;35568;48.104;11.782;2023-03-03T11:57:32;95564.70;;;10.72;36.79
48156;BME280;35568;48.104;11.782;2023-03-03T12:00:14;95561.20;;;10.92;36.58
48156;BME280;35568;48.104;11.782;2023-03-03T12:02:57;95561.54;;;10.75;36.44
48156;BME280;35568;48.104;11.782;2023-03-03T12:05:42;95564.73;;;11.38;36.35
48156;BME280;35568;48.104;11.782;2023-03-03T12:08:21;95558.50;;;11.04;37.16
48156;BME280;35568;48.104;11.782;2023-03-03T12:11:00;95562.70;;;10.86;36.48
48156;BME280;35568;48.104;11.782;2023-03-03T12:13:43;95561.11;;;10.77;36.68
48156;BME280;35568;48.104;11.782;2023-03-03T12:16:21;95558.31;;;11.23;36.19
48156;BME280;35568;48.104;11.782;2023-03-03T12:19:00;95561.84;;;10.52;36.50
48156;BME280;35568;48.104;11.782;2023-03-03T12:21:45;95560.19;;;10.03;37.50
48156;BME280;35568;48.104;11.782;2023-03-03T12:24:27;95557.47;;;10.79;37.02
48156;BME280;35568;48.104;11.782;2023-03-03T12:27:08;95555.84;;;11.03;37.43
48156;BME280;35568;48.104;11.782;2023-03-03T12:29:41;95558.20;;;11.13;35.78
48156;BME280;35568;48.104;11.782;2023-03-03T12:32:17;95556.60;;;11.32;35.38
48156;BME280;35568;48.104;11.782;2023-03-03T12:34:50;95551.27;;;10.65;36.62
48156;BME280;35568;48.104;11.782;2023-03-03T12:37:28;95548.00;;;11.33;36.01
48156;BME280;35568;48.104;11.782;2023-03-03T12:40:07;95547.50;;;11.25;35.54
48156;BME280;35568;48.104;11.782;2023-03-03T12:42:47;95549.61;;;11.68;35.17
48156;BME280;35568;48.104;11.782;2023-03-03T12:45:27;95548.46;;;11.79;34.79
48156;BME280;35568;48.104;11.782;2023-03-03T12:48:00;95547.00;;;11.63;34.63
48156;BME280;35568;48.104;11.782;2023-03-03T12:50:36;95551.63;;;11.20;34.97
48156;BME280;35568;48.104;11.782;2023-03-03T12:53:17;95544.58;;;11.22;36.07
48156;BME280;35568;48.104;11.782;2023-03-03T12:55:52;95543.28;;;11.74;34.88
48156;BME280;35568;48.104;11.782;2023-03-03T12:58:35;95541.08;;;12.03;34.78
48156;BME280;35568;48.104;11.782;2023-03-03T13:01:12;95543.10;;;11.84;33.83
48156;BME280;35568;48.104;11.782;2023-03-03T13:03:50;95545.67;;;11.61;34.52
48156;BME280;35568;48.104;11.782;2023-03-03T13:06:25;95548.22;;;11.42;34.79
48156;BME280;35568;48.104;11.782;2023-03-03T13:09:02;95551.46;;;11.90;34.82
48156;BME280;35568;48.104;11.782;2023-03-03T13:11:43;95552.55;;;12.00;33.79
48156;BME280;35568;48.104;11.782;2023-03-03T13:14:20;95552.48;;;10.86;34.25
48156;BME280;35568;48.104;11.782;2023-03-03T13:17:00;95548.33;;;11.12;34.69
48156;BME280;35568;48.104;11.782;2023-03-03T13:19:32;95549.39;;;11.06;34.66
48156;BME280;35568;48.104;11.782;2023-03-03T13:22:08;95552.49;;;10.86;34.55
48156;BME280;35568;48.104;11.782;2023-03-03T13:24:50;95549.80;;;10.89;35.09